createdAt,value
2023-05-02T00:01:42.576Z,100898.28
2023-05-02T00:04:09.744Z,100866.50
2023-05-02T00:06:37.204Z,100905.78
2023-05-02T00:09:04.806Z,100803.44
2023-05-02T00:11:31.968Z,100858.47
2023-05-02T00:13:59.339Z,100829.28
2023-05-02T00:16:26.595Z,100831.94
2023-05-02T00:18:53.536Z,100881.50
2023-05-02T00:21:40.705Z,100895.31
2023-05-02T00:24:21.467Z,100876.56
2023-05-02T00:26:48.558Z,100874.06
2023-05-02T00:29:35.553Z,100865.44
2023-05-02T00:32:16.008Z,100891.06
2023-05-02T00:34:43.418Z,100788.31
2023-05-02T00:37:10.612Z,100837.09
2023-05-02T00:39:37.979Z,100809.56
2023-05-02T00:42:05.227Z,100869.19
2023-05-02T00:44:33.095Z,100735.56
2023-05-02T00:47:01.908Z,100863.06
2023-05-02T00:49:29.464Z,100867.31
2023-05-02T00:51:56.818Z,100726.56
2023-05-02T00:54:24.192Z,100751.53
2023-05-02T00:56:51.162Z,100836.47
2023-05-02T00:59:18.810Z,100845.25
2023-05-02T01:02:10.059Z,100813.59
2023-05-02T01:05:02.132Z,100834.78
2023-05-02T01:07:51.994Z,100832.16
2023-05-02T01:10:50.312Z,100828.78
2023-05-02T01:13:25.915Z,100803.69
2023-05-02T01:15:56.731Z,100729.94
2023-05-02T01:18:28.162Z,100795.94
2023-05-02T01:21:01.856Z,100742.41
2023-05-02T01:24:00.853Z,100837.88
2023-05-02T01:26:53.057Z,100791.44
2023-05-02T01:29:43.470Z,100800.53
2023-05-02T01:32:39.688Z,100842.34
2023-05-02T01:35:22.456Z,100844.88
2023-05-02T01:37:52.812Z,100796.47
2023-05-02T01:40:22.803Z,100844.44
2023-05-02T01:42:52.006Z,100720.09
2023-05-02T01:45:21.094Z,100710.22
2023-05-02T01:47:49.911Z,100852.03
2023-05-02T01:50:21.027Z,100822.94
2023-05-02T01:52:51.117Z,100856.56
2023-05-02T01:55:18.316Z,100809.88
2023-05-02T01:57:47.870Z,100855.78
2023-05-02T02:00:18.672Z,100776.22
2023-05-02T02:02:47.082Z,100821.19
2023-05-02T02:05:15.066Z,100843.47
2023-05-02T02:07:43.664Z,100785.50
2023-05-02T02:10:11.009Z,100848.19
2023-05-02T02:12:51.424Z,100723.69
2023-05-02T02:15:19.915Z,100844.22
2023-05-02T02:17:55.658Z,100858.31
2023-05-02T02:20:22.920Z,100784.72
2023-05-02T02:22:52.231Z,100769.47
2023-05-02T02:25:20.503Z,100863.53
2023-05-02T02:28:07.450Z,100836.19
2023-05-02T02:30:48.267Z,100766.47
2023-05-02T02:33:15.377Z,100832.53
2023-05-02T02:35:44.800Z,100864.50
2023-05-02T02:38:42.177Z,100767.63
2023-05-02T02:41:12.191Z,100858.31
2023-05-02T02:43:57.285Z,100861.03
2023-05-02T02:47:03.230Z,100853.09
2023-05-02T02:49:49.596Z,100862.31
2023-05-02T02:52:44.473Z,100868.50
2023-05-02T02:55:19.895Z,100857.00
2023-05-02T02:58:02.658Z,100803.06
2023-05-02T03:00:30.131Z,100855.22
2023-05-02T03:02:57.742Z,100837.28
2023-05-02T03:05:25.659Z,100841.78
2023-05-02T03:07:52.820Z,100810.88
2023-05-02T03:10:23.445Z,100826.81
2023-05-02T03:12:50.480Z,100819.53
2023-05-02T03:15:39.332Z,100834.91
2023-05-02T03:18:06.467Z,100750.25
2023-05-02T03:20:34.031Z,100763.41
2023-05-02T03:23:01.774Z,100814.75
2023-05-02T03:25:28.717Z,100776.00
2023-05-02T03:28:10.472Z,100813.03
2023-05-02T03:31:13.597Z,100846.03
2023-05-02T03:34:14.468Z,100812.16
2023-05-02T03:36:57.074Z,100833.59
2023-05-02T03:39:23.959Z,100753.25
2023-05-02T03:41:51.245Z,100749.78
2023-05-02T03:44:21.927Z,100829.22
2023-05-02T03:46:48.990Z,100741.16
2023-05-02T03:49:16.048Z,100828.31
2023-05-02T03:51:45.685Z,100775.41
2023-05-02T03:54:14.403Z,100847.34
2023-05-02T03:56:44.070Z,100803.72
2023-05-02T03:59:22.497Z,100828.53
2023-05-02T04:01:50.942Z,100811.75
2023-05-02T04:04:20.569Z,100785.56
2023-05-02T04:06:51.283Z,100743.38
2023-05-02T04:09:20.411Z,100834.25
2023-05-02T04:11:53.228Z,100861.50
2023-05-02T04:14:20.597Z,100831.25
2023-05-02T04:16:50.061Z,100863.28
2023-05-02T04:19:22.089Z,100777.72
2023-05-02T04:21:49.339Z,100794.13
2023-05-02T04:24:37.517Z,100832.00
2023-05-02T04:27:18.076Z,100809.72
2023-05-02T04:30:06.494Z,100815.06
2023-05-02T04:33:09.601Z,100853.84
2023-05-02T04:35:50.462Z,100840.25
2023-05-02T04:38:18.450Z,100795.09
2023-05-02T04:40:47.108Z,100859.00
2023-05-02T04:43:14.188Z,100867.50
2023-05-02T04:45:51.631Z,100722.13
2023-05-02T04:48:27.707Z,100885.44
2023-05-02T04:50:54.822Z,100808.59
2023-05-02T04:53:42.537Z,100889.50
2023-05-02T04:56:23.116Z,100899.19
2023-05-02T04:58:50.194Z,100807.88
2023-05-02T05:01:17.327Z,100906.41
2023-05-02T05:03:46.173Z,100892.50
2023-05-02T05:06:15.232Z,100928.00
2023-05-02T05:08:46.572Z,100850.38
2023-05-02T05:11:16.059Z,100868.97
2023-05-02T05:13:57.030Z,100902.66
2023-05-02T05:16:38.212Z,100895.72
2023-05-02T05:19:05.469Z,100916.28
2023-05-02T05:21:32.565Z,100871.97
2023-05-02T05:24:01.206Z,100941.31
2023-05-02T05:26:29.303Z,100821.88
2023-05-02T05:29:16.546Z,100927.22
2023-05-02T05:31:57.174Z,100909.59
2023-05-02T05:34:25.207Z,100800.28
2023-05-02T05:36:54.849Z,100942.75
2023-05-02T05:39:22.597Z,100907.88
2023-05-02T05:41:52.775Z,100904.44
2023-05-02T05:44:22.158Z,100902.31
2023-05-02T05:46:49.794Z,100809.31
2023-05-02T05:49:18.441Z,100916.53
2023-05-02T05:52:06.562Z,100893.19
2023-05-02T05:55:08.572Z,100951.59
2023-05-02T05:57:49.062Z,100940.16
2023-05-02T06:00:18.294Z,100971.75
2023-05-02T06:02:49.549Z,100946.69
2023-05-02T06:05:51.662Z,100967.63
2023-05-02T06:08:32.212Z,100929.72
2023-05-02T06:10:59.134Z,100900.88
2023-05-02T06:13:26.316Z,100982.41
2023-05-02T06:15:53.334Z,100966.88
2023-05-02T06:18:20.285Z,100967.25
2023-05-02T06:20:47.228Z,100970.56
2023-05-02T06:23:34.661Z,100963.41
2023-05-02T06:26:15.187Z,100973.91
2023-05-02T06:29:02.594Z,100974.34
2023-05-02T06:31:57.202Z,100961.72
2023-05-02T06:34:37.180Z,100957.94
2023-05-02T06:37:04.149Z,100984.34
2023-05-02T06:39:31.312Z,100982.88
2023-05-02T06:41:58.650Z,100978.75
2023-05-02T06:44:26.596Z,100973.25
2023-05-02T06:46:53.693Z,101006.25
2023-05-02T06:49:20.847Z,100967.69
2023-05-02T06:51:47.768Z,100951.19
2023-05-02T06:54:17.691Z,101000.38
2023-05-02T06:56:44.704Z,101005.94
2023-05-02T06:59:11.832Z,100937.13
2023-05-02T07:01:38.780Z,100916.47
2023-05-02T07:04:06.211Z,101026.25
2023-05-02T07:06:33.729Z,101017.66
2023-05-02T07:09:00.736Z,101001.09
2023-05-02T07:11:28.149Z,100990.44
2023-05-02T07:14:15.622Z,100985.53
2023-05-02T07:17:16.669Z,100968.78
2023-05-02T07:19:57.092Z,100978.47
2023-05-02T07:22:24.047Z,101000.56
2023-05-02T07:24:58.715Z,101029.59
2023-05-02T07:27:45.630Z,100994.94
2023-05-02T07:30:46.613Z,100991.03
2023-05-02T07:33:47.623Z,101002.03
2023-05-02T07:36:18.249Z,101037.94
2023-05-02T07:38:45.160Z,101029.31
2023-05-02T07:41:13.984Z,101004.19
2023-05-02T07:43:41.008Z,100964.56
2023-05-02T07:46:07.857Z,100994.56
2023-05-02T07:48:35.004Z,101001.09
2023-05-02T07:51:23.596Z,101015.50
2023-05-02T07:54:15.742Z,101026.63
2023-05-02T07:56:43.466Z,101027.78
2023-05-02T07:59:10.439Z,100947.78
2023-05-02T08:01:38.103Z,101032.31
2023-05-02T08:04:25.855Z,100969.78
2023-05-02T08:07:06.531Z,101007.56
2023-05-02T08:09:33.690Z,100987.59
2023-05-02T08:12:02.748Z,101049.63
2023-05-02T08:14:29.792Z,101055.66
2023-05-02T08:16:56.652Z,101005.75
2023-05-02T08:19:23.843Z,101067.72
2023-05-02T08:21:50.848Z,101006.88
2023-05-02T08:24:17.796Z,101071.22
2023-05-02T08:26:44.687Z,100977.50
2023-05-02T08:29:31.636Z,101059.22
2023-05-02T08:32:33.711Z,101025.81
2023-05-02T08:35:14.229Z,101027.66
2023-05-02T08:37:41.095Z,101012.97
2023-05-02T08:40:12.580Z,101071.09
2023-05-02T08:42:43.464Z,101071.31
2023-05-02T08:48:00.934Z,101017.47
2023-05-02T08:50:29.136Z,101039.88
2023-05-02T08:52:57.264Z,101027.25
2023-05-02T08:55:27.849Z,101026.31
2023-05-02T08:57:58.094Z,101071.34
2023-05-02T09:00:25.223Z,101022.94
2023-05-02T09:03:15.192Z,101070.09
2023-05-02T09:05:42.966Z,101064.41
2023-05-02T09:08:10.349Z,100983.19
2023-05-02T09:10:37.813Z,101091.94
2023-05-02T09:13:30.704Z,101091.31
2023-05-02T09:16:19.997Z,101102.91
2023-05-02T09:18:49.289Z,101083.91
2023-05-02T09:21:21.592Z,101100.50
2023-05-02T09:23:50.026Z,101072.94
2023-05-02T09:26:20.218Z,101100.31
2023-05-02T09:29:08.683Z,101095.25
2023-05-02T09:31:56.099Z,101103.19
2023-05-02T09:34:45.681Z,101060.09
2023-05-02T09:37:49.691Z,101088.34
2023-05-02T09:40:32.611Z,101012.72
2023-05-02T09:42:59.654Z,101057.44
2023-05-02T09:45:26.734Z,101028.66
2023-05-02T09:47:54.610Z,101082.81
2023-05-02T09:50:48.207Z,101114.31
2023-05-02T09:53:15.268Z,100992.88
2023-05-02T09:55:42.198Z,101059.22
2023-05-02T09:58:21.725Z,101107.09
2023-05-02T10:00:50.568Z,101086.66
2023-05-02T10:03:19.270Z,101097.72
2023-05-02T10:06:06.771Z,101095.56
2023-05-02T10:08:47.795Z,101104.59
2023-05-02T10:11:17.781Z,101076.09
2023-05-02T10:13:45.335Z,101045.25
2023-05-02T10:16:13.349Z,101061.72
2023-05-02T10:18:48.852Z,101102.91
2023-05-02T10:21:27.462Z,101102.03
2023-05-02T10:24:14.725Z,101107.81
2023-05-02T10:27:06.744Z,101085.75
2023-05-02T10:29:53.737Z,101073.47
2023-05-02T10:32:34.896Z,101095.59
2023-05-02T10:35:06.495Z,101082.31
2023-05-02T10:37:36.562Z,101098.44
2023-05-02T10:40:04.131Z,101086.75
2023-05-02T10:42:31.467Z,101114.81
2023-05-02T10:45:00.355Z,101096.00
2023-05-02T10:47:28.165Z,101088.38
2023-05-02T10:49:59.324Z,101115.56
2023-05-02T10:52:26.501Z,101114.44
2023-05-02T10:55:13.331Z,101103.81
2023-05-02T10:57:58.998Z,101099.06
2023-05-02T11:00:26.289Z,101096.81
2023-05-02T11:02:53.650Z,101036.63
2023-05-02T11:05:23.009Z,101076.47
2023-05-02T11:07:50.347Z,100988.13
2023-05-02T11:10:17.404Z,101091.09
2023-05-02T11:12:48.094Z,101056.66
2023-05-02T11:15:15.853Z,101047.88
2023-05-02T11:18:09.200Z,101095.22
2023-05-02T11:20:39.552Z,101096.19
2023-05-02T11:23:16.149Z,101089.09
2023-05-02T11:25:57.931Z,101051.00
2023-05-02T11:28:54.864Z,101093.53
2023-05-02T11:32:07.844Z,101037.78
2023-05-02T11:34:52.676Z,101095.25
2023-05-02T11:37:21.269Z,101093.44
2023-05-02T11:39:48.218Z,101052.81
2023-05-02T11:42:31.670Z,101078.47
2023-05-02T11:45:01.459Z,101090.81
2023-05-02T11:47:29.757Z,101058.03
2023-05-02T11:49:57.838Z,101013.75
2023-05-02T11:52:25.003Z,101040.31
2023-05-02T11:54:57.301Z,101035.97
2023-05-02T11:57:25.459Z,101026.09
2023-05-02T11:59:57.828Z,101088.59
2023-05-02T12:02:38.181Z,101089.78
2023-05-02T12:05:09.951Z,101096.94
2023-05-02T12:08:00.797Z,101082.81
2023-05-02T12:10:41.952Z,101067.78
2023-05-02T12:13:10.077Z,101031.53
2023-05-02T12:15:38.668Z,101027.16
2023-05-02T12:18:06.956Z,101029.78
2023-05-02T12:20:34.597Z,101087.31
2023-05-02T12:23:01.748Z,101038.66
2023-05-02T12:25:53.827Z,101038.59
2023-05-02T12:29:05.809Z,101096.09
2023-05-02T12:32:00.297Z,101050.16
2023-05-02T12:34:41.447Z,101089.09
2023-05-02T12:37:36.867Z,101107.59
2023-05-02T12:40:37.808Z,101096.00
2023-05-02T12:43:33.544Z,101104.09
2023-05-02T12:46:23.841Z,101080.09
2023-05-02T12:49:24.809Z,101076.28
2023-05-02T12:52:25.847Z,101077.50
2023-05-02T12:55:35.854Z,101076.28
2023-05-02T12:58:17.285Z,101016.38
2023-05-02T13:00:45.715Z,101010.31
2023-05-02T13:03:14.909Z,101029.78
2023-05-02T13:05:42.092Z,101028.00
2023-05-02T13:08:08.997Z,101045.66
2023-05-02T13:10:36.003Z,101090.75
2023-05-02T13:13:03.646Z,101095.31
2023-05-02T13:15:50.832Z,101086.31
2023-05-02T13:18:51.933Z,101091.72
2023-05-02T13:21:32.564Z,101076.72
2023-05-02T13:24:19.833Z,101075.66
2023-05-02T13:27:00.339Z,101104.66
2023-05-02T13:29:47.763Z,101083.22
2023-05-02T13:32:42.120Z,101026.22
2023-05-02T13:35:22.471Z,101031.53
2023-05-02T13:41:05.999Z,101081.84
2023-05-02T13:43:32.941Z,101089.97
2023-05-02T13:46:20.212Z,101022.72
2023-05-02T13:49:20.916Z,101039.53
2023-05-02T13:52:22.033Z,100997.06
2023-05-02T13:55:15.935Z,100980.25
2023-05-02T13:57:56.360Z,101042.97
2023-05-02T14:00:23.257Z,101035.09
2023-05-02T14:02:50.607Z,101005.19
2023-05-02T14:05:17.640Z,101038.47
2023-05-02T14:07:45.184Z,101063.22
2023-05-02T14:10:12.840Z,100999.44
2023-05-02T14:12:59.944Z,101043.72
2023-05-02T14:15:40.638Z,101021.66
2023-05-02T14:18:07.756Z,100987.88
2023-05-02T14:20:35.181Z,100979.97
2023-05-02T14:23:02.478Z,101022.44
2023-05-02T14:25:29.653Z,101007.56
2023-05-02T14:28:20.011Z,101017.09
2023-05-02T14:31:00.426Z,100988.91
2023-05-02T14:33:28.394Z,101065.88
2023-05-02T14:35:55.407Z,101002.25
2023-05-02T14:38:22.776Z,101065.00
2023-05-02T14:40:50.161Z,101068.47
2023-05-02T14:43:17.190Z,101063.31
2023-05-02T14:45:44.559Z,101051.00
2023-05-02T14:48:32.993Z,101047.31
2023-05-02T14:51:33.923Z,101043.94
2023-05-02T14:54:39.880Z,101067.81
2023-05-02T14:57:20.665Z,101065.19
2023-05-02T14:59:47.815Z,101075.78
2023-05-02T15:02:14.880Z,100990.56
2023-05-02T15:05:03.218Z,101050.84
2023-05-02T15:08:04.337Z,101059.78
2023-05-02T15:11:05.054Z,101072.06
2023-05-02T15:13:52.195Z,101013.78
2023-05-02T15:16:38.946Z,101049.25
2023-05-02T15:19:19.432Z,101038.63
2023-05-02T15:21:46.442Z,101081.16
2023-05-02T15:24:33.898Z,101053.69
2023-05-02T15:27:15.337Z,101056.28
2023-05-02T15:30:03.514Z,101048.28
2023-05-02T15:33:04.980Z,101061.66
2023-05-02T15:35:58.409Z,100997.72
2023-05-02T15:38:49.925Z,101096.91
2023-05-02T15:41:30.648Z,101089.09
2023-05-02T15:43:58.180Z,101093.50
2023-05-02T15:46:25.907Z,101098.78
2023-05-02T15:48:52.879Z,101035.03
2023-05-02T15:51:39.912Z,101060.72
2023-05-02T15:54:41.000Z,101096.94
2023-05-02T15:57:35.121Z,101079.34
2023-05-02T16:00:17.052Z,101105.88
2023-05-02T16:02:44.136Z,101097.91
2023-05-02T16:05:11.279Z,101087.28
2023-05-02T16:07:57.950Z,101116.50
2023-05-02T16:10:40.637Z,101126.28
2023-05-02T16:13:08.547Z,101113.88
2023-05-02T16:15:35.610Z,101106.78
2023-05-02T16:18:02.589Z,101106.78
2023-05-02T16:20:29.810Z,101098.78
2023-05-02T16:23:17.967Z,101092.56
2023-05-02T16:26:02.122Z,101120.88
2023-05-02T16:28:48.959Z,101120.03
2023-05-02T16:31:50.099Z,101103.00
2023-05-02T16:34:50.985Z,101088.75
2023-05-02T16:37:33.602Z,101129.63
2023-05-02T16:40:01.987Z,101018.84
2023-05-02T16:42:51.094Z,101078.91
2023-05-02T16:45:31.672Z,101117.81
2023-05-02T16:47:58.647Z,101124.59
2023-05-02T16:50:45.938Z,101107.06
2023-05-02T16:53:27.577Z,101089.44
2023-05-02T16:55:54.910Z,101126.72
2023-05-02T16:58:41.967Z,101134.97
2023-05-02T17:01:43.001Z,101134.81
2023-05-02T17:04:43.947Z,101142.47
2023-05-02T17:07:44.976Z,101123.38
2023-05-02T17:10:28.820Z,101141.53
2023-05-02T17:12:56.376Z,101098.31
2023-05-02T17:15:23.244Z,101140.81
2023-05-02T17:17:50.247Z,101097.59
2023-05-02T17:20:20.514Z,101149.00
2023-05-02T17:22:47.566Z,101131.31
2023-05-02T17:25:14.636Z,101133.84
2023-05-02T17:28:02.079Z,101163.25
2023-05-02T17:31:04.070Z,101157.75
2023-05-02T17:33:55.986Z,101169.63
2023-05-02T17:36:22.844Z,101122.66
2023-05-02T17:38:49.753Z,101180.53
2023-05-02T17:41:16.961Z,101206.38
2023-05-02T17:43:43.786Z,101136.16
2023-05-02T17:46:11.151Z,101209.00
2023-05-02T17:48:38.273Z,101142.44
2023-05-02T17:51:05.763Z,101158.34
2023-05-02T17:53:33.773Z,101208.84
2023-05-02T17:56:05.420Z,101217.66
2023-05-02T17:58:33.089Z,101091.28
2023-05-02T18:01:11.236Z,101094.75
2023-05-02T18:03:39.051Z,101187.09
2023-05-02T18:06:06.340Z,101224.03
2023-05-02T18:08:33.559Z,101227.63
2023-05-02T18:11:00.781Z,101235.94
2023-05-02T18:13:27.755Z,101194.38
2023-05-02T18:16:15.078Z,101195.75
2023-05-02T18:19:16.079Z,101168.91
2023-05-02T18:21:56.822Z,101172.56
2023-05-02T18:24:45.088Z,101247.41
2023-05-02T18:27:46.010Z,101184.25
2023-05-02T18:30:37.581Z,101233.34
2023-05-02T18:33:05.331Z,101204.00
2023-05-02T18:35:32.663Z,101226.16
2023-05-02T18:37:59.919Z,101249.19
2023-05-02T18:40:47.038Z,101257.97
2023-05-02T18:43:48.067Z,101270.44
2023-05-02T18:46:29.678Z,101265.03
2023-05-02T18:48:57.227Z,101165.31
2023-05-02T18:51:24.476Z,101203.34
2023-05-02T18:53:51.619Z,101228.13
2023-05-02T18:56:18.608Z,101236.81
2023-05-02T18:59:06.076Z,101293.78
2023-05-02T19:01:48.773Z,101267.75
2023-05-02T19:04:15.920Z,101279.28
2023-05-02T19:06:43.133Z,101299.53
2023-05-02T19:09:10.226Z,101206.00
2023-05-02T19:11:37.222Z,101203.13
2023-05-02T19:14:04.200Z,101303.47
2023-05-02T19:16:54.113Z,101294.72
2023-05-02T19:19:34.660Z,101319.50
2023-05-02T19:22:22.052Z,101319.22
2023-05-02T19:25:23.237Z,101286.34
2023-05-02T19:28:24.057Z,101300.63
2023-05-02T19:31:11.586Z,101330.88
2023-05-02T19:33:38.798Z,101338.03
2023-05-02T19:36:09.126Z,101331.84
2023-05-02T19:38:36.205Z,101321.03
2023-05-02T19:41:03.262Z,101314.81
2023-05-02T19:43:30.313Z,101335.00
2023-05-02T19:45:58.906Z,101305.59
2023-05-02T19:48:26.056Z,101365.00
2023-05-02T19:50:53.857Z,101278.63
2023-05-02T19:53:20.965Z,101349.50
2023-05-02T19:55:48.932Z,101372.34
2023-05-02T19:58:15.918Z,101352.59
2023-05-02T20:00:42.924Z,101309.75
2023-05-02T20:03:09.982Z,101362.97
2023-05-02T20:05:36.970Z,101318.69
2023-05-02T20:08:04.132Z,101322.06
2023-05-02T20:10:31.493Z,101366.72
2023-05-02T20:12:58.482Z,101331.41
2023-05-02T20:15:25.903Z,101395.44
2023-05-02T20:17:53.020Z,101420.09
2023-05-02T20:20:20.241Z,101344.63
2023-05-02T20:22:47.161Z,101348.25
2023-05-02T20:25:34.077Z,101396.31
2023-05-02T20:28:35.079Z,101364.09
2023-05-02T20:31:36.166Z,101335.44
2023-05-02T20:34:16.668Z,101372.66
2023-05-02T20:36:43.615Z,101358.25
2023-05-02T20:39:12.148Z,101338.81
2023-05-02T20:41:39.405Z,101370.13
2023-05-02T20:44:29.132Z,101338.81
2023-05-02T20:47:09.616Z,101380.03
2023-05-02T20:49:36.512Z,101419.44
2023-05-02T20:52:05.054Z,101351.81
2023-05-02T20:54:32.016Z,101340.84
2023-05-02T20:56:58.923Z,101362.13
2023-05-02T20:59:26.127Z,101426.06
2023-05-02T21:01:53.134Z,101377.94
2023-05-02T21:04:20.239Z,101363.81
2023-05-02T21:06:47.247Z,101322.41
2023-05-02T21:09:14.296Z,101393.72
2023-05-02T21:11:41.352Z,101407.84
2023-05-02T21:14:08.477Z,101318.66
2023-05-02T21:16:35.713Z,101417.53
2023-05-02T21:19:03.101Z,101334.47
2023-05-02T21:21:50.414Z,101366.50
2023-05-02T21:24:39.187Z,101391.97
2023-05-02T21:27:06.201Z,101398.03
2023-05-02T21:29:33.127Z,101403.28
2023-05-02T21:32:00.084Z,101383.59
2023-05-02T21:34:27.031Z,101356.00
2023-05-02T21:36:54.218Z,101435.22
2023-05-02T21:39:41.195Z,101347.59
2023-05-02T21:42:42.153Z,101348.97
2023-05-02T21:45:43.139Z,101400.66
2023-05-02T21:48:44.164Z,101386.22
2023-05-02T21:51:22.991Z,101353.94
2023-05-02T21:53:49.941Z,101359.97
2023-05-02T21:56:16.895Z,101273.03
2023-05-02T21:58:43.799Z,101347.88
2023-05-02T22:01:10.902Z,101379.03
2023-05-02T22:03:38.320Z,101411.41
2023-05-02T22:06:06.675Z,101389.13
2023-05-02T22:08:34.201Z,101420.19
2023-05-02T22:11:05.213Z,101431.84
2023-05-02T22:13:32.183Z,101414.59
2023-05-02T22:15:59.186Z,101326.13
2023-05-02T22:18:26.120Z,101407.69
2023-05-02T22:20:54.151Z,101371.38
2023-05-02T22:23:21.421Z,101353.34
2023-05-02T22:25:48.433Z,101356.84
2023-05-02T22:28:35.156Z,101398.38
2023-05-02T22:31:16.612Z,101415.19
2023-05-02T22:33:45.812Z,101375.13
2023-05-02T22:36:12.780Z,101364.91
2023-05-02T22:38:40.036Z,101360.41
2023-05-02T22:41:07.281Z,101440.44
2023-05-02T22:43:34.385Z,101425.19
2023-05-02T22:46:02.394Z,101420.34
2023-05-02T22:48:29.374Z,101404.31
2023-05-02T22:50:56.943Z,101440.78
2023-05-02T22:53:24.085Z,101387.19
2023-05-02T22:55:51.925Z,101448.03
2023-05-02T22:58:18.895Z,101382.66
2023-05-02T23:00:46.410Z,101431.06
2023-05-02T23:03:13.400Z,101405.75
2023-05-02T23:05:40.631Z,101424.94
2023-05-02T23:08:07.665Z,101455.88
2023-05-02T23:10:34.727Z,101372.06
2023-05-02T23:13:01.567Z,101378.38
2023-05-02T23:15:28.561Z,101420.19
2023-05-02T23:17:55.622Z,101378.09
2023-05-02T23:20:23.375Z,101428.44
2023-05-02T23:22:50.319Z,101302.59
2023-05-02T23:25:18.675Z,101450.72
2023-05-02T23:27:45.745Z,101354.66
2023-05-02T23:30:12.910Z,101419.72
2023-05-02T23:32:40.422Z,101378.34
2023-05-02T23:35:08.085Z,101402.00
2023-05-02T23:37:35.115Z,101442.88
2023-05-02T23:40:02.645Z,101435.34
2023-05-02T23:42:30.344Z,101453.03
2023-05-02T23:44:57.961Z,101441.25
2023-05-02T23:47:28.208Z,101369.22
2023-05-02T23:49:55.283Z,101346.56
2023-05-02T23:52:22.258Z,101417.19
2023-05-02T23:54:49.310Z,101430.78
2023-05-02T23:57:16.200Z,101410.09
2023-05-02T23:59:43.262Z,101444.97
